Terminal Aerodrome Forecast
Issued by NWS

Home | Current Version | Previous Version | Text Only | Print | Product List | Glossary On
Versions: 1 2 3 4 5 6 7 8 9 10 11 12 13 14 15 16 17 18 19 20 21 22
000
FTUS43 KAPX 260334 AAA
TAFPLN
TAF AMD
KPLN 260334Z 2604/2624 25018G27KT P6SM OVC040
     FM260600 25014G24KT P6SM BKN035
     FM261100 26009KT P6SM BKN040
     FM261200 25009KT P6SM SCT040
     FM261400 25009KT P6SM SCT250
     FM262300 22007KT P6SM FEW200=

USA.gov is the U.S. government's official web portal to all federal, state and local government web resources and services.